createdAt,value
2023-02-11T00:20:14.939Z,13.1
2023-02-11T00:50:16.173Z,16.3
2023-02-11T01:20:19.038Z,13.5
2023-02-11T01:50:15.565Z,17.2
2023-02-11T02:20:26.076Z,16.9
2023-02-11T02:50:17.949Z,19.5
2023-02-11T03:20:18.382Z,21.8
2023-02-11T03:50:18.434Z,24.4
2023-02-11T04:20:16.776Z,22.2
2023-02-11T04:50:16.810Z,19.9
2023-02-11T05:20:17.371Z,21.4
2023-02-11T05:50:17.326Z,22.4
2023-02-11T06:20:18.250Z,19
2023-02-11T06:50:18.654Z,19.3
2023-02-11T07:20:21.177Z,19.1
2023-02-11T07:50:20.174Z,17.6
2023-02-11T08:20:18.035Z,17.7
2023-02-11T08:50:17.509Z,19.2
2023-02-11T09:20:17.479Z,17.6
2023-02-11T09:50:23.995Z,18.6
2023-02-11T10:20:27.311Z,14.3
2023-02-11T10:50:26.074Z,13.4
2023-02-11T11:20:36.246Z,13.5
2023-02-11T11:50:31.806Z,12.2
2023-02-11T12:20:30.189Z,15
2023-02-11T12:50:29.079Z,9.8
2023-02-11T13:20:27.872Z,8.9
2023-02-11T13:50:25.408Z,9.1
2023-02-11T14:20:34.495Z,9.1
2023-02-11T14:50:27.205Z,7.3
2023-02-11T15:20:32.244Z,7.7
2023-02-11T15:50:30.782Z,8.9
2023-02-11T16:20:27.624Z,7.4
2023-02-11T16:50:29.767Z,6.7
2023-02-11T17:20:29.180Z,6.7
2023-02-11T17:50:29.773Z,7.8
2023-02-11T18:20:30.370Z,7.8
2023-02-11T18:50:31.176Z,8.3
2023-02-11T19:20:33.187Z,10
2023-02-11T19:50:34.597Z,9.9
2023-02-11T20:20:32.600Z,8.1
2023-02-11T20:50:33.856Z,9.3
2023-02-11T21:20:36.309Z,9
2023-02-11T21:50:33.683Z,8.7
2023-02-11T22:20:33.275Z,9.3
2023-02-11T22:50:44.748Z,11.4
2023-02-11T23:20:37.860Z,10.6
2023-02-11T23:50:32.573Z,10.1
